createdAt,value
2023-01-19T08:01:17.810Z,14.49
2023-01-19T08:01:27.821Z,3.69
2023-01-19T08:01:38.042Z,4.13
2023-01-19T08:01:47.971Z,4.44
2023-01-19T08:01:58.351Z,4.64
2023-01-19T08:02:08.173Z,4.84
2023-01-19T08:02:18.149Z,4.35
2023-01-19T08:02:28.028Z,4.39
2023-01-19T08:02:38.096Z,4.28
2023-01-19T08:02:47.983Z,4.20
2023-01-19T08:02:58.205Z,3.82
2023-01-19T08:03:07.984Z,3.94
2023-01-19T08:03:17.971Z,3.74
2023-01-19T08:03:27.961Z,3.62
2023-01-19T08:03:37.936Z,4.49
2023-01-19T08:03:47.896Z,4.45
2023-01-19T08:03:57.927Z,4.83
2023-01-19T08:04:07.870Z,4.88
2023-01-19T08:04:17.836Z,4.66
2023-01-19T08:04:27.809Z,4.76
2023-01-19T08:04:37.808Z,5.21
2023-01-19T08:04:47.874Z,4.73
2023-01-19T08:04:57.723Z,4.75
2023-01-19T08:05:07.691Z,4.76
2023-01-19T08:05:17.705Z,4.74
2023-01-19T08:05:27.637Z,5.02
2023-01-19T08:05:37.571Z,4.95
2023-01-19T08:05:47.527Z,5.05
2023-01-19T08:05:57.570Z,4.95
2023-01-19T08:06:07.481Z,4.60
2023-01-19T08:06:17.467Z,4.37
2023-01-19T08:06:27.447Z,5.22
2023-01-19T08:06:37.409Z,4.93
2023-01-19T08:06:47.438Z,4.14
2023-01-19T08:06:57.350Z,4.09
2023-01-19T08:07:07.285Z,3.96
2023-01-19T08:07:17.292Z,3.90
2023-01-19T08:07:27.230Z,4.61
2023-01-19T08:07:37.169Z,4.69
2023-01-19T08:07:47.264Z,4.50
2023-01-19T08:07:57.140Z,4.33
2023-01-19T08:08:07.073Z,4.04
2023-01-19T08:08:17.096Z,3.63
2023-01-19T08:08:27.041Z,3.88
2023-01-19T08:08:37.085Z,3.94
2023-01-19T08:08:47.002Z,4.12
2023-01-19T08:08:56.931Z,3.82
2023-01-19T08:09:06.978Z,3.64
2023-01-19T08:09:16.873Z,3.89
2023-01-19T08:09:26.846Z,3.79
2023-01-19T08:09:36.845Z,3.87
2023-01-19T08:09:46.820Z,4.06
2023-01-19T08:09:56.757Z,4.32
2023-01-19T08:10:06.740Z,4.50
2023-01-19T08:10:16.708Z,4.54
2023-01-19T08:10:26.709Z,4.36
2023-01-19T08:10:36.677Z,4.71
2023-01-19T08:10:46.619Z,4.42
2023-01-19T08:10:56.654Z,4.53
2023-01-19T08:11:06.582Z,4.28
2023-01-19T08:11:16.519Z,3.81
2023-01-19T08:11:26.471Z,4.13
2023-01-19T08:11:36.477Z,4.37
2023-01-19T08:11:46.427Z,4.12
2023-01-19T08:11:56.409Z,3.69
2023-01-19T08:12:06.374Z,3.92
2023-01-19T08:12:16.347Z,4.02
2023-01-19T08:12:26.305Z,12.64
2023-01-19T08:12:36.279Z,12.76
2023-01-19T08:12:46.290Z,14.84
2023-01-19T08:12:56.319Z,18.33
2023-01-19T08:13:06.210Z,20.01
2023-01-19T08:13:16.193Z,17.17
2023-01-19T08:13:26.096Z,14.60
2023-01-19T08:13:36.087Z,14.35
2023-01-19T08:13:46.064Z,12.57
2023-01-19T08:13:56.046Z,10.34
2023-01-19T08:14:07.933Z,11.06
2023-01-19T08:14:15.934Z,19.88
2023-01-19T08:14:25.890Z,38.47
2023-01-19T08:14:35.882Z,66.98
2023-01-19T08:14:45.817Z,99.05
2023-01-19T08:14:55.846Z,156.89
2023-01-19T08:15:05.707Z,262.17
2023-01-19T08:15:15.683Z,204.96
2023-01-19T08:15:25.720Z,178.07
2023-01-19T08:15:35.624Z,149.14
2023-01-19T08:15:45.571Z,155.73
2023-01-19T08:15:55.536Z,290.51
2023-01-19T08:16:05.450Z,186.62
2023-01-19T08:16:15.422Z,150.94
2023-01-19T08:16:25.346Z,100.46
2023-01-19T08:16:35.308Z,91.30
2023-01-19T08:16:45.266Z,79.03
2023-01-19T08:16:55.214Z,72.92
2023-01-19T08:17:05.161Z,65.55
2023-01-19T08:17:15.126Z,57.23
2023-01-19T08:17:25.080Z,50.85
2023-01-19T08:17:35.006Z,43.46
2023-01-19T08:17:45.049Z,45.51
2023-01-19T08:17:54.952Z,45.74
2023-01-19T08:18:04.992Z,42.70
2023-01-19T08:18:14.828Z,40.96
2023-01-19T08:18:24.820Z,37.24
2023-01-19T08:18:34.793Z,29.16
2023-01-19T08:18:44.731Z,22.68
2023-01-19T08:18:54.718Z,19.23
2023-01-19T08:19:04.704Z,17.58
2023-01-19T08:19:14.630Z,18.52
2023-01-19T08:19:24.618Z,18.24
2023-01-19T08:19:34.553Z,18.92
2023-01-19T08:19:44.524Z,18.99
2023-01-19T08:19:54.493Z,21.50
2023-01-19T08:20:04.451Z,22.06
2023-01-19T08:20:14.444Z,20.75
2023-01-19T08:20:24.418Z,17.74
2023-01-19T08:20:34.397Z,17.38
2023-01-19T08:20:44.329Z,16.41
2023-01-19T08:20:54.263Z,17.29
2023-01-19T08:21:04.298Z,18.22
2023-01-19T08:21:14.265Z,16.13
2023-01-19T08:21:24.191Z,14.33
2023-01-19T08:21:34.184Z,13.86
2023-01-19T08:21:44.122Z,13.56
2023-01-19T08:21:54.079Z,11.98
2023-01-19T08:22:04.056Z,10.68
2023-01-19T08:22:14.026Z,10.20
2023-01-19T08:22:23.991Z,10.38
2023-01-19T08:22:34.061Z,9.72
2023-01-19T08:22:44.038Z,9.22
2023-01-19T08:22:53.976Z,9.07
2023-01-19T08:23:04.507Z,9.20
2023-01-19T08:23:13.959Z,9.58
2023-01-19T08:23:23.842Z,9.59
2023-01-19T08:23:33.798Z,8.40
2023-01-19T08:23:43.812Z,8.08
2023-01-19T08:23:53.730Z,8.19
2023-01-19T08:24:03.741Z,7.11
2023-01-19T08:24:13.664Z,6.52
2023-01-19T08:24:23.568Z,6.25
2023-01-19T08:24:33.533Z,6.23
2023-01-19T08:24:43.501Z,5.79
2023-01-19T08:24:53.422Z,5.99
2023-01-19T08:25:03.421Z,6.28
2023-01-19T08:25:13.391Z,5.75
2023-01-19T08:25:40.697Z,12.38
2023-01-19T08:25:50.702Z,4.54
2023-01-19T08:26:00.900Z,4.82
2023-01-19T08:26:10.905Z,4.75
2023-01-19T08:26:20.908Z,4.31
2023-01-19T08:26:30.951Z,4.16
2023-01-19T08:26:40.881Z,4.02
2023-01-19T08:26:50.911Z,3.78
2023-01-19T08:27:00.909Z,3.98
2023-01-19T08:27:11.468Z,4.52
2023-01-19T08:27:20.913Z,4.59
2023-01-19T08:27:30.878Z,4.59
2023-01-19T08:27:40.895Z,4.47
2023-01-19T08:27:50.921Z,4.55
2023-01-19T08:28:00.881Z,4.88
2023-01-19T08:28:10.894Z,4.45
2023-01-19T08:28:20.888Z,4.29
2023-01-19T08:28:30.969Z,4.43
2023-01-19T08:28:40.894Z,4.90
2023-01-19T08:28:50.866Z,5.13
2023-01-19T08:29:00.865Z,5.65
2023-01-19T08:29:10.865Z,5.18
2023-01-19T08:29:20.931Z,4.64
2023-01-19T08:29:30.892Z,4.67
2023-01-19T08:29:40.897Z,4.83
2023-01-19T08:29:50.920Z,4.97
2023-01-19T08:30:00.899Z,4.90
2023-01-19T08:30:10.871Z,4.88
2023-01-19T08:30:20.881Z,4.83
2023-01-19T08:30:30.872Z,4.70
2023-01-19T08:30:41.024Z,4.70
2023-01-19T08:30:50.973Z,5.09
2023-01-19T08:31:11.085Z,5.07
2023-01-19T08:31:20.456Z,5.09
2023-01-19T08:31:24.694Z,5.22
2023-01-19T08:31:31.032Z,5.20
2023-01-19T08:31:40.917Z,5.62
2023-01-19T08:31:50.938Z,5.91
2023-01-19T08:32:00.917Z,5.99
2023-01-19T08:32:10.994Z,5.75
2023-01-19T08:32:20.933Z,5.39
2023-01-19T08:32:30.921Z,5.10
2023-01-19T08:32:40.881Z,5.08
2023-01-19T08:32:50.856Z,7.32
2023-01-19T08:33:01.243Z,6.57
2023-01-19T08:33:11.115Z,6.22
2023-01-19T08:33:21.169Z,5.41
2023-01-19T08:33:31.236Z,4.72
2023-01-19T08:33:41.122Z,4.36
2023-01-19T08:33:51.176Z,4.11
2023-01-19T08:34:01.106Z,4.21
2023-01-19T08:34:11.159Z,4.51
2023-01-19T08:34:21.082Z,4.71
2023-01-19T08:34:31.128Z,4.65
2023-01-19T08:34:41.143Z,4.61
2023-01-19T08:34:51.100Z,4.93
2023-01-19T08:35:01.149Z,5.58
2023-01-19T08:35:11.146Z,6.24
2023-01-19T08:35:21.105Z,6.09
2023-01-19T08:35:31.122Z,6.09
2023-01-19T08:35:41.137Z,5.95
2023-01-19T08:35:51.094Z,6.00
2023-01-19T08:36:01.204Z,6.59
2023-01-19T08:36:11.110Z,7.13
2023-01-19T08:36:21.085Z,6.55
2023-01-19T08:36:31.118Z,6.39
2023-01-19T08:36:41.302Z,6.20
2023-01-19T08:36:51.115Z,6.27
2023-01-19T08:37:01.122Z,5.96
2023-01-19T08:37:11.152Z,5.73
2023-01-19T08:37:21.105Z,6.18
2023-01-19T08:37:32.692Z,5.89
2023-01-19T08:37:41.092Z,5.83
2023-01-19T08:37:51.118Z,5.72
2023-01-19T08:38:01.154Z,5.82
2023-01-19T08:38:11.182Z,5.52
2023-01-19T08:38:21.205Z,5.13
2023-01-19T08:38:31.137Z,5.44
2023-01-19T08:38:41.193Z,5.63
2023-01-19T08:38:51.108Z,5.98
2023-01-19T08:39:01.131Z,5.88
2023-01-19T08:39:11.076Z,5.72
2023-01-19T08:39:21.108Z,6.35
2023-01-19T08:39:31.134Z,6.20
2023-01-19T08:39:41.107Z,5.44
2023-01-19T08:39:51.117Z,5.58
2023-01-19T08:40:01.555Z,6.12
2023-01-19T08:40:11.278Z,6.41
2023-01-19T08:40:21.226Z,5.76
2023-01-19T08:40:31.242Z,5.34
2023-01-19T08:40:41.257Z,5.45
2023-01-19T08:40:51.246Z,5.02
2023-01-19T08:41:01.254Z,4.98
2023-01-19T08:41:11.210Z,5.52
2023-01-19T08:41:21.272Z,5.05
2023-01-19T08:41:31.257Z,4.70
2023-01-19T08:41:41.205Z,4.35
2023-01-19T08:41:51.225Z,4.39
2023-01-19T08:42:01.254Z,4.55
2023-01-19T08:42:11.215Z,4.63
2023-01-19T08:42:21.236Z,4.69
2023-01-19T08:42:31.247Z,4.71
2023-01-19T08:42:41.223Z,4.84
2023-01-19T08:42:51.238Z,5.05
2023-01-19T08:43:01.731Z,5.60
2023-01-19T08:43:11.199Z,6.08
2023-01-19T08:43:21.237Z,6.21
2023-01-19T08:43:31.281Z,6.09
2023-01-19T08:43:41.304Z,5.21
2023-01-19T08:43:51.257Z,5.24
2023-01-19T08:44:01.231Z,5.01
2023-01-19T08:44:11.199Z,5.16
2023-01-19T08:44:21.181Z,5.42
2023-01-19T08:44:31.197Z,7.02
2023-01-19T08:44:49.656Z,5.98
2023-01-19T08:44:58.151Z,5.23
2023-01-19T08:45:02.348Z,4.89
2023-01-19T08:45:11.207Z,4.62
2023-01-19T08:45:21.245Z,4.51
2023-01-19T08:45:31.206Z,5.31
2023-01-19T08:45:41.231Z,5.82
2023-01-19T08:45:51.280Z,6.12
2023-01-19T08:46:01.307Z,6.40
2023-01-19T08:46:11.292Z,6.53
2023-01-19T08:46:21.317Z,6.64
2023-01-19T08:46:31.248Z,6.29
2023-01-19T08:46:41.292Z,6.08
2023-01-19T08:46:51.192Z,5.71
2023-01-19T08:47:01.195Z,5.48
2023-01-19T08:47:11.258Z,5.49
2023-01-19T08:47:21.223Z,5.30
2023-01-19T08:47:31.212Z,5.47
2023-01-19T08:47:41.296Z,5.52
2023-01-19T08:47:51.233Z,5.63
